createdAt,value
2022-08-21T00:00:28.972Z,60.51
2022-08-21T00:03:02.414Z,61.30
2022-08-21T00:05:31.920Z,60.83
2022-08-21T00:07:59.404Z,61.14
2022-08-21T00:10:27.095Z,60.85
2022-08-21T00:12:54.990Z,61.05
2022-08-21T00:15:27.612Z,60.81
2022-08-21T00:17:56.026Z,61.60
2022-08-21T00:20:24.383Z,60.76
2022-08-21T00:22:51.636Z,60.19
2022-08-21T00:25:24.293Z,60.55
2022-08-21T00:27:54.006Z,60.90
2022-08-21T00:30:23.573Z,61.00
2022-08-21T00:32:52.301Z,60.12
2022-08-21T00:35:23.303Z,60.47
2022-08-21T00:37:50.585Z,60.56
2022-08-21T00:40:21.029Z,60.49
2022-08-21T00:42:59.180Z,60.80
2022-08-21T00:45:29.064Z,60.20
2022-08-21T00:47:56.356Z,60.78
2022-08-21T00:50:26.924Z,60.52
2022-08-21T00:52:54.163Z,60.60
2022-08-21T00:55:23.669Z,61.00
2022-08-21T00:57:56.364Z,60.25
2022-08-21T01:00:29.605Z,59.52
2022-08-21T01:02:59.110Z,59.38
2022-08-21T01:05:26.667Z,59.54
2022-08-21T01:07:54.700Z,59.66
2022-08-21T01:10:23.959Z,59.55
2022-08-21T01:12:57.071Z,58.90
2022-08-21T01:15:33.124Z,59.04
2022-08-21T01:18:00.345Z,59.69
2022-08-21T01:20:32.470Z,59.38
2022-08-21T01:23:04.744Z,58.88
2022-08-21T01:25:33.284Z,59.43
2022-08-21T01:28:08.033Z,59.42
2022-08-21T01:30:37.584Z,58.99
2022-08-21T01:33:05.305Z,58.34
2022-08-21T01:35:32.505Z,58.57
2022-08-21T01:37:59.604Z,58.86
2022-08-21T01:40:26.846Z,58.37
2022-08-21T01:42:54.659Z,57.64
2022-08-21T01:45:21.865Z,57.56
2022-08-21T01:47:49.264Z,58.42
2022-08-21T01:50:18.689Z,58.26
2022-08-21T01:52:45.725Z,55.83
2022-08-21T01:55:18.144Z,57.83
2022-08-21T01:57:46.444Z,58.41
2022-08-21T02:00:14.645Z,57.76
2022-08-21T02:02:42.565Z,58.40
2022-08-21T02:05:11.946Z,58.60
2022-08-21T02:07:44.764Z,58.38
2022-08-21T02:10:14.425Z,58.54
2022-08-21T02:12:41.545Z,56.51
2022-08-21T02:15:10.425Z,54.30
2022-08-21T02:17:47.226Z,54.42
2022-08-21T02:20:20.405Z,54.97
2022-08-21T02:22:47.752Z,54.96
2022-08-21T02:25:15.366Z,55.40
2022-08-21T02:27:44.705Z,55.53
2022-08-21T02:30:14.786Z,53.54
2022-08-21T02:32:42.245Z,53.23
2022-08-21T02:35:11.305Z,52.71
2022-08-21T02:37:54.804Z,53.17
2022-08-21T02:40:26.005Z,53.07
2022-08-21T02:42:53.620Z,51.94
2022-08-21T02:45:21.566Z,52.97
2022-08-21T02:47:54.105Z,53.04
2022-08-21T02:50:25.186Z,53.17
2022-08-21T02:52:55.334Z,52.19
2022-08-21T02:55:27.925Z,51.26
2022-08-21T02:57:56.627Z,51.18
2022-08-21T03:00:25.206Z,51.10
2022-08-21T03:02:52.584Z,49.76
2022-08-21T03:05:20.125Z,50.69
2022-08-21T03:07:48.393Z,50.54
2022-08-21T03:10:16.314Z,50.02
2022-08-21T03:12:43.593Z,50.75
2022-08-21T03:15:16.225Z,50.96
2022-08-21T03:17:43.365Z,51.31
2022-08-21T03:20:11.004Z,51.19
2022-08-21T03:22:38.105Z,51.72
2022-08-21T03:25:06.734Z,51.96
2022-08-21T03:27:35.265Z,51.91
2022-08-21T03:30:04.745Z,51.89
2022-08-21T03:32:32.724Z,52.69
2022-08-21T03:35:01.434Z,53.11
2022-08-21T03:37:29.004Z,54.14
2022-08-21T03:39:56.234Z,54.21
2022-08-21T03:42:23.985Z,54.81
2022-08-21T03:44:51.665Z,54.64
2022-08-21T03:47:19.247Z,54.85
2022-08-21T03:49:46.345Z,54.79
2022-08-21T03:52:13.446Z,55.34
2022-08-21T03:54:42.564Z,55.46
2022-08-21T03:57:11.766Z,55.09
2022-08-21T03:59:40.425Z,55.82
2022-08-21T04:02:08.453Z,55.75
2022-08-21T04:04:36.067Z,55.29
2022-08-21T04:07:04.113Z,56.42
2022-08-21T04:09:31.507Z,56.72
2022-08-21T04:12:00.165Z,56.68
2022-08-21T04:14:27.673Z,56.79
2022-08-21T04:16:54.804Z,56.65
2022-08-21T04:19:21.965Z,57.33
2022-08-21T04:21:50.353Z,56.85
2022-08-21T04:24:20.484Z,57.51
2022-08-21T04:26:48.025Z,57.65
2022-08-21T04:29:15.145Z,58.35
2022-08-21T04:31:42.245Z,58.53
2022-08-21T04:34:09.564Z,58.13
2022-08-21T04:36:36.745Z,58.06
2022-08-21T04:39:03.978Z,59.21
2022-08-21T04:41:31.984Z,57.13
2022-08-21T04:43:59.146Z,57.39
2022-08-21T04:46:26.412Z,57.92
2022-08-21T04:48:53.506Z,57.56
2022-08-21T04:51:36.592Z,57.00
2022-08-21T04:54:15.844Z,57.00
2022-08-21T04:56:51.045Z,56.87
2022-08-21T04:59:28.066Z,56.73
2022-08-21T05:01:58.290Z,57.40
2022-08-21T05:04:31.327Z,57.17
2022-08-21T05:07:02.506Z,57.22
2022-08-21T05:09:29.946Z,56.75
2022-08-21T05:11:57.351Z,57.57
2022-08-21T05:14:24.488Z,57.32
2022-08-21T05:16:51.804Z,57.50
2022-08-21T05:19:19.044Z,57.75
2022-08-21T05:21:48.685Z,58.14
2022-08-21T05:24:17.214Z,58.83
2022-08-21T05:26:46.338Z,58.73
2022-08-21T05:29:16.872Z,58.40
2022-08-21T05:31:46.535Z,58.65
2022-08-21T05:34:16.079Z,58.47
2022-08-21T05:36:43.603Z,57.93
2022-08-21T05:39:11.006Z,58.22
2022-08-21T05:41:38.204Z,57.66
2022-08-21T05:44:10.548Z,57.27
2022-08-21T05:46:39.181Z,57.22
2022-08-21T05:49:06.612Z,57.80
2022-08-21T05:51:33.850Z,57.85
2022-08-21T05:54:01.124Z,59.55
2022-08-21T05:56:28.484Z,59.39
2022-08-21T05:58:55.845Z,58.89
2022-08-21T06:01:23.587Z,58.51
2022-08-21T06:03:51.087Z,57.70
2022-08-21T06:06:18.772Z,58.29
2022-08-21T06:08:46.644Z,57.89
2022-08-21T06:11:13.804Z,56.85
2022-08-21T06:13:42.124Z,55.24
2022-08-21T06:16:15.684Z,54.44
2022-08-21T06:18:45.134Z,52.65
2022-08-21T06:21:14.168Z,52.81
2022-08-21T06:23:41.603Z,52.53
2022-08-21T06:26:09.773Z,50.53
2022-08-21T06:28:38.125Z,50.68
2022-08-21T06:31:19.243Z,50.31
2022-08-21T06:33:47.404Z,50.26
2022-08-21T06:36:14.898Z,49.38
2022-08-21T06:38:42.363Z,48.66
2022-08-21T06:41:18.203Z,48.64
2022-08-21T06:43:51.924Z,48.84
2022-08-21T06:46:19.131Z,48.36
2022-08-21T06:48:46.486Z,48.32
2022-08-21T06:51:13.893Z,47.80
2022-08-21T06:53:40.993Z,47.59
2022-08-21T06:56:08.414Z,48.18
2022-08-21T06:58:35.731Z,47.41
2022-08-21T07:01:03.525Z,47.26
2022-08-21T07:03:36.933Z,47.62
2022-08-21T07:06:05.526Z,46.99
2022-08-21T07:08:32.851Z,46.72
2022-08-21T07:11:02.926Z,47.01
2022-08-21T07:13:31.045Z,46.33
2022-08-21T07:16:03.149Z,46.37
2022-08-21T07:18:31.284Z,46.62
2022-08-21T07:20:58.773Z,45.80
2022-08-21T07:23:31.684Z,45.45
2022-08-21T07:26:00.608Z,45.43
2022-08-21T07:28:28.563Z,44.75
2022-08-21T07:30:58.648Z,44.68
2022-08-21T07:33:27.770Z,44.49
2022-08-21T07:35:56.045Z,44.66
2022-08-21T07:38:23.686Z,44.33
2022-08-21T07:40:53.806Z,44.63
2022-08-21T07:43:22.806Z,44.89
2022-08-21T07:45:55.212Z,44.68
2022-08-21T07:48:23.326Z,43.86
2022-08-21T07:50:50.729Z,44.01
2022-08-21T07:53:17.972Z,44.00
2022-08-21T07:55:45.733Z,43.97
2022-08-21T07:58:13.092Z,44.05
2022-08-21T08:00:41.325Z,43.85
2022-08-21T08:03:08.646Z,43.88
2022-08-21T08:05:41.088Z,43.09
2022-08-21T08:08:08.930Z,43.61
2022-08-21T08:10:37.324Z,44.17
2022-08-21T08:13:04.646Z,43.67
2022-08-21T08:15:36.932Z,43.11
2022-08-21T08:18:05.127Z,42.80
2022-08-21T08:20:32.447Z,43.19
2022-08-21T08:22:59.702Z,42.71
2022-08-21T08:25:27.927Z,42.92
2022-08-21T08:28:04.476Z,42.84
2022-08-21T08:30:44.069Z,43.13
2022-08-21T08:33:11.204Z,43.23
2022-08-21T08:35:38.997Z,43.10
2022-08-21T08:38:06.765Z,43.62
2022-08-21T08:40:53.174Z,43.14
2022-08-21T08:43:20.763Z,43.02
2022-08-21T08:45:52.258Z,43.30
2022-08-21T08:48:37.843Z,43.13
2022-08-21T08:51:10.489Z,43.22
2022-08-21T08:53:50.803Z,43.86
2022-08-21T08:56:22.253Z,44.01
2022-08-21T08:58:51.491Z,43.90
2022-08-21T09:01:21.337Z,44.01
2022-08-21T09:03:51.323Z,44.48
2022-08-21T09:06:38.364Z,44.58
2022-08-21T09:09:26.723Z,44.74
2022-08-21T09:12:03.177Z,45.29
2022-08-21T09:15:01.371Z,45.18
2022-08-21T09:18:17.133Z,45.05
2022-08-21T09:21:03.278Z,45.15
2022-08-21T09:23:36.528Z,45.43
2022-08-21T09:26:18.970Z,45.50
2022-08-21T09:28:48.845Z,45.29
2022-08-21T09:31:27.939Z,45.50
2022-08-21T09:34:06.084Z,45.17
2022-08-21T09:36:52.133Z,44.71
2022-08-21T09:39:29.925Z,44.65
2022-08-21T09:42:05.331Z,44.62
2022-08-21T09:44:40.529Z,43.73
2022-08-21T09:47:09.848Z,43.46
2022-08-21T09:49:40.046Z,44.09
2022-08-21T09:52:26.765Z,43.50
2022-08-21T09:54:56.844Z,43.22
2022-08-21T09:57:50.253Z,41.84
2022-08-21T10:00:27.365Z,41.83
2022-08-21T10:02:55.127Z,41.86
2022-08-21T10:05:27.093Z,41.92
2022-08-21T10:07:54.243Z,41.83
2022-08-21T10:10:29.983Z,42.07
2022-08-21T10:13:23.378Z,41.18
2022-08-21T10:16:19.003Z,41.28
2022-08-21T10:19:02.884Z,40.16
2022-08-21T10:21:50.332Z,41.24
2022-08-21T10:24:30.558Z,40.16
2022-08-21T10:27:04.363Z,40.11
2022-08-21T10:30:07.244Z,40.60
2022-08-21T10:33:02.043Z,40.41
2022-08-21T10:35:38.284Z,40.33
2022-08-21T10:38:52.643Z,40.22
2022-08-21T10:41:28.342Z,40.41
2022-08-21T10:44:29.643Z,40.22
2022-08-21T10:47:23.812Z,40.65
2022-08-21T10:50:13.580Z,40.65
2022-08-21T10:53:06.803Z,40.28
2022-08-21T10:55:40.819Z,41.03
2022-08-21T10:58:32.786Z,41.02
2022-08-21T11:13:40.971Z,41.48
2022-08-21T11:16:43.603Z,41.82
2022-08-21T11:19:15.285Z,42.28
2022-08-21T11:21:53.523Z,42.12
2022-08-21T11:24:23.811Z,41.49
2022-08-21T11:27:05.857Z,41.59
2022-08-21T11:29:40.964Z,40.70
2022-08-21T11:32:29.450Z,40.70
2022-08-21T11:35:33.189Z,40.86
2022-08-21T11:38:14.808Z,40.25
2022-08-21T11:40:59.404Z,40.10
2022-08-21T11:43:47.004Z,39.96
2022-08-21T11:46:38.283Z,39.57
2022-08-21T11:49:25.725Z,39.07
2022-08-21T11:52:11.323Z,38.89
2022-08-21T11:55:01.243Z,39.23
2022-08-21T11:57:41.163Z,39.39
2022-08-21T12:00:28.003Z,38.59
2022-08-21T12:03:00.277Z,38.63
2022-08-21T12:05:41.419Z,39.09
2022-08-21T12:08:15.082Z,38.29
2022-08-21T12:11:02.643Z,38.27
2022-08-21T12:13:40.667Z,38.51
2022-08-21T12:16:32.964Z,38.55
2022-08-21T12:19:13.603Z,38.06
2022-08-21T12:22:15.486Z,38.34
2022-08-21T12:24:50.689Z,39.28
2022-08-21T12:27:53.011Z,38.91
2022-08-21T12:30:41.763Z,38.60
2022-08-21T12:33:36.611Z,38.37
2022-08-21T12:36:12.882Z,39.06
2022-08-21T12:38:54.283Z,39.20
2022-08-21T12:41:45.371Z,39.57
2022-08-21T12:44:18.203Z,39.41
2022-08-21T12:46:55.962Z,39.59
2022-08-21T12:49:33.419Z,39.92
2022-08-21T12:52:21.488Z,40.03
2022-08-21T12:54:48.733Z,39.91
2022-08-21T12:57:26.379Z,40.28
2022-08-21T13:00:01.685Z,40.84
2022-08-21T13:02:36.367Z,40.69
2022-08-21T13:05:06.646Z,41.04
2022-08-21T13:07:37.171Z,40.65
2022-08-21T13:10:22.163Z,41.00
2022-08-21T13:12:50.483Z,41.17
2022-08-21T13:15:26.444Z,40.96
2022-08-21T13:18:03.632Z,41.33
2022-08-21T13:20:37.483Z,40.98
2022-08-21T13:23:20.363Z,41.14
2022-08-21T13:25:47.564Z,40.91
2022-08-21T13:28:16.126Z,40.75
2022-08-21T13:30:54.404Z,40.75
2022-08-21T13:33:25.452Z,40.92
2022-08-21T13:36:18.044Z,40.86
2022-08-21T13:38:46.651Z,40.48
2022-08-21T13:41:32.244Z,40.28
2022-08-21T13:44:28.685Z,39.95
2022-08-21T13:46:56.164Z,39.90
2022-08-21T13:49:30.526Z,40.00
2022-08-21T13:51:58.285Z,39.78
2022-08-21T13:54:38.326Z,39.17
2022-08-21T13:57:16.687Z,39.26
2022-08-21T13:59:43.856Z,39.48
2022-08-21T14:02:25.043Z,39.73
2022-08-21T14:04:53.407Z,39.69
2022-08-21T14:07:41.610Z,38.96
2022-08-21T14:10:16.651Z,38.83
2022-08-21T14:13:08.046Z,38.64
2022-08-21T14:15:36.722Z,38.16
2022-08-21T14:18:15.885Z,38.29
2022-08-21T14:20:43.646Z,38.87
2022-08-21T14:23:11.084Z,38.07
2022-08-21T14:25:43.957Z,38.33
2022-08-21T14:28:28.833Z,38.26
2022-08-21T14:30:58.164Z,37.93
2022-08-21T14:33:33.326Z,37.87
2022-08-21T14:36:02.243Z,38.11
2022-08-21T14:38:30.137Z,38.29
2022-08-21T14:41:05.164Z,37.55
2022-08-21T14:43:33.083Z,37.52
2022-08-21T14:46:02.043Z,37.86
2022-08-21T14:48:29.323Z,38.29
2022-08-21T14:51:00.406Z,37.99
2022-08-21T14:53:28.164Z,37.92
2022-08-21T14:56:11.243Z,37.82
2022-08-21T14:58:44.124Z,37.48
2022-08-21T15:01:14.645Z,37.50
2022-08-21T15:03:42.060Z,37.40
2022-08-21T15:06:10.491Z,37.28
2022-08-21T15:08:37.845Z,37.31
2022-08-21T15:11:18.551Z,37.20
2022-08-21T15:13:48.043Z,37.78
2022-08-21T15:16:15.246Z,36.56
2022-08-21T15:18:43.221Z,36.56
2022-08-21T15:21:11.163Z,36.50
2022-08-21T15:23:43.564Z,36.77
2022-08-21T15:26:11.604Z,36.89
2022-08-21T15:28:39.484Z,36.52
2022-08-21T15:31:07.252Z,36.73
2022-08-21T15:33:34.563Z,36.53
2022-08-21T15:36:01.971Z,37.29
2022-08-21T15:38:29.324Z,36.48
2022-08-21T15:40:56.691Z,37.01
2022-08-21T15:43:30.740Z,36.92
2022-08-21T15:46:01.028Z,36.89
2022-08-21T15:48:28.644Z,36.95
2022-08-21T15:50:55.973Z,36.89
2022-08-21T15:53:23.484Z,36.79
2022-08-21T15:55:50.764Z,36.65
2022-08-21T15:58:18.442Z,36.92
2022-08-21T16:00:47.972Z,36.62
2022-08-21T16:03:19.243Z,36.90
2022-08-21T16:05:49.771Z,36.75
2022-08-21T16:08:17.126Z,36.72
2022-08-21T16:10:44.443Z,36.89
2022-08-21T16:13:26.932Z,36.74
2022-08-21T16:15:55.251Z,36.73
2022-08-21T16:18:24.403Z,37.34
2022-08-21T16:20:51.722Z,36.88
2022-08-21T16:23:19.724Z,36.81
2022-08-21T16:25:47.283Z,36.96
2022-08-21T16:28:17.005Z,37.17
2022-08-21T16:30:46.132Z,37.13
2022-08-21T16:33:22.645Z,37.13
2022-08-21T16:35:49.883Z,37.18
2022-08-21T16:38:17.242Z,37.44
2022-08-21T16:40:44.683Z,37.32
2022-08-21T16:43:11.923Z,37.54
2022-08-21T16:45:40.163Z,37.85
2022-08-21T16:48:10.003Z,37.55
2022-08-21T16:50:38.212Z,37.89
2022-08-21T16:53:06.932Z,37.71
2022-08-21T16:55:38.845Z,37.51
2022-08-21T16:58:11.723Z,37.94
2022-08-21T17:00:39.010Z,37.98
2022-08-21T17:03:07.133Z,37.82
2022-08-21T17:05:34.372Z,38.20
2022-08-21T17:08:01.696Z,38.26
2022-08-21T17:10:28.894Z,38.15
2022-08-21T17:12:58.869Z,38.04
2022-08-21T17:15:30.203Z,38.25
2022-08-21T17:17:57.442Z,38.34
2022-08-21T17:20:26.385Z,38.43
2022-08-21T17:22:54.171Z,38.29
2022-08-21T17:25:21.531Z,38.53
2022-08-21T17:27:49.970Z,38.33
2022-08-21T17:30:18.083Z,38.57
2022-08-21T17:32:46.483Z,38.85
2022-08-21T17:35:14.744Z,38.99
2022-08-21T17:37:42.243Z,39.40
2022-08-21T17:40:14.635Z,39.46
2022-08-21T17:42:43.883Z,39.74
2022-08-21T17:45:14.619Z,39.47
2022-08-21T17:47:42.091Z,39.91
2022-08-21T17:50:11.571Z,39.56
2022-08-21T17:52:39.611Z,39.82
2022-08-21T17:55:07.085Z,40.19
2022-08-21T17:57:36.283Z,40.07
2022-08-21T18:00:08.524Z,39.76
2022-08-21T18:02:40.574Z,40.33
2022-08-21T18:05:09.933Z,40.12
2022-08-21T18:07:37.178Z,40.38
2022-08-21T18:10:07.764Z,40.22
2022-08-21T18:12:35.571Z,39.91
2022-08-21T18:15:04.683Z,39.92
2022-08-21T18:17:34.083Z,40.34
2022-08-21T18:20:02.295Z,40.67
2022-08-21T18:22:29.611Z,40.54
2022-08-21T18:24:56.962Z,40.40
2022-08-21T18:27:29.082Z,40.22
2022-08-21T18:30:00.610Z,40.43
2022-08-21T18:32:30.947Z,40.96
2022-08-21T18:35:02.484Z,40.88
2022-08-21T18:37:31.043Z,40.74
2022-08-21T18:39:59.477Z,41.06
2022-08-21T18:42:28.643Z,41.60
2022-08-21T18:45:01.931Z,41.29
2022-08-21T18:47:37.452Z,41.65
2022-08-21T18:50:10.198Z,41.55
2022-08-21T18:52:41.822Z,41.43
2022-08-21T18:55:20.925Z,41.14
2022-08-21T18:57:48.172Z,41.40
2022-08-21T19:00:19.403Z,41.88
2022-08-21T19:02:46.923Z,41.41
2022-08-21T19:05:17.472Z,41.74
2022-08-21T19:07:45.323Z,42.00
2022-08-21T19:10:27.891Z,42.39
2022-08-21T19:13:01.369Z,41.89
2022-08-21T19:15:29.814Z,42.49
2022-08-21T19:17:58.767Z,42.35
2022-08-21T19:20:35.026Z,42.29
2022-08-21T19:23:04.343Z,42.56
2022-08-21T19:25:34.369Z,42.29
2022-08-21T19:28:11.493Z,42.42
2022-08-21T19:30:41.412Z,42.52
2022-08-21T19:33:10.443Z,42.49
2022-08-21T19:35:37.726Z,42.62
2022-08-21T19:38:05.078Z,42.43
2022-08-21T19:40:32.401Z,42.61
2022-08-21T19:43:00.399Z,42.45
2022-08-21T19:45:28.714Z,42.58
2022-08-21T19:47:56.691Z,42.41
2022-08-21T19:50:26.324Z,42.36
2022-08-21T19:52:53.494Z,42.79
2022-08-21T19:55:23.309Z,43.02
2022-08-21T19:57:52.011Z,43.14
2022-08-21T20:00:19.211Z,43.20
2022-08-21T20:02:47.836Z,43.19
2022-08-21T20:05:18.260Z,43.47
2022-08-21T20:07:46.211Z,43.57
2022-08-21T20:10:13.539Z,43.50
2022-08-21T20:12:42.084Z,43.23
2022-08-21T20:15:09.725Z,42.74
2022-08-21T20:17:39.046Z,42.61
2022-08-21T20:20:08.132Z,42.78
2022-08-21T20:22:35.487Z,42.83
2022-08-21T20:25:03.047Z,42.97
2022-08-21T20:27:30.445Z,42.77
2022-08-21T20:30:02.209Z,42.42
2022-08-21T20:32:29.404Z,42.63
2022-08-21T20:34:59.644Z,43.38
2022-08-21T20:37:36.181Z,43.15
2022-08-21T20:40:12.184Z,42.68
2022-08-21T20:42:47.687Z,43.30
2022-08-21T20:45:25.326Z,43.64
2022-08-21T20:48:03.043Z,43.31
2022-08-21T20:50:37.032Z,42.58
2022-08-21T20:53:14.323Z,42.88
2022-08-21T20:55:49.124Z,42.40
2022-08-21T20:58:21.324Z,42.58
2022-08-21T21:00:49.925Z,42.37
2022-08-21T21:03:32.887Z,42.35
2022-08-21T21:06:04.851Z,42.04
2022-08-21T21:08:38.165Z,42.09
2022-08-21T21:11:38.723Z,42.27
2022-08-21T21:14:11.804Z,42.12
2022-08-21T21:16:45.885Z,42.21
2022-08-21T21:19:37.058Z,42.03
2022-08-21T21:22:11.297Z,41.98
2022-08-21T21:24:51.771Z,41.58
2022-08-21T21:30:36.725Z,41.38
2022-08-21T21:33:04.803Z,40.86
2022-08-21T21:35:41.272Z,40.81
2022-08-21T21:38:23.365Z,40.59
2022-08-21T21:40:53.445Z,40.82
2022-08-21T21:43:40.445Z,40.44
2022-08-21T21:46:22.644Z,40.33
2022-08-21T21:49:14.211Z,40.22
2022-08-21T21:52:13.652Z,40.11
2022-08-21T21:54:53.005Z,39.94
2022-08-21T21:57:38.614Z,39.64
2022-08-21T22:00:19.609Z,39.90
2022-08-21T22:03:05.303Z,40.00
2022-08-21T22:05:57.845Z,39.78
2022-08-21T22:08:31.124Z,39.65
2022-08-21T22:11:28.657Z,39.50
2022-08-21T22:14:21.562Z,39.69
2022-08-21T22:16:51.643Z,39.75
2022-08-21T22:19:25.204Z,39.57
2022-08-21T22:22:09.484Z,39.54
2022-08-21T22:24:43.084Z,39.48
2022-08-21T22:27:18.443Z,39.44
2022-08-21T22:29:53.084Z,39.14
2022-08-21T22:35:33.328Z,39.41
2022-08-21T22:38:01.850Z,39.10
2022-08-21T22:40:34.908Z,38.99
2022-08-21T22:43:21.284Z,39.15
2022-08-21T22:46:00.966Z,38.97
2022-08-21T22:48:32.692Z,39.10
2022-08-21T22:51:22.724Z,39.20
2022-08-21T22:53:57.729Z,38.82
2022-08-21T22:56:39.164Z,38.73
2022-08-21T22:59:26.884Z,39.03
2022-08-21T23:02:09.306Z,39.11
2022-08-21T23:04:48.821Z,39.19
2022-08-21T23:07:35.349Z,39.31
2022-08-21T23:10:20.981Z,39.12
2022-08-21T23:12:51.216Z,39.44
2022-08-21T23:15:21.737Z,39.36
2022-08-21T23:17:54.027Z,39.70
2022-08-21T23:20:45.427Z,40.00
2022-08-21T23:23:27.017Z,39.63
2022-08-21T23:26:18.347Z,39.49
2022-08-21T23:29:10.882Z,39.36
2022-08-21T23:32:03.498Z,39.70
2022-08-21T23:34:53.185Z,39.51
2022-08-21T23:37:58.837Z,39.48
2022-08-21T23:40:51.265Z,39.62
2022-08-21T23:44:17.040Z,40.05
2022-08-21T23:46:57.078Z,39.71
2022-08-21T23:49:32.998Z,40.08
2022-08-21T23:52:15.299Z,39.91
2022-08-21T23:54:58.737Z,40.32
2022-08-21T23:57:45.858Z,40.43
